This is the latest recevied weather packets stored in our database for station/object N7DQ. If no packets are shown the sender has not sent any weather packets the latest 10 day(s).
| Time | Temp. | Humidity | Pressure | Rain* | Wind** | Luminosity | Snow |
|---|---|---|---|---|---|---|---|
| 1777511406 | 22.78° C | 46% | 1021 hPa | 0 mm | - | 320 W/m² | - |
| 1777511106 | 23.33° C | 48% | 1021 hPa | 0 mm | - | 336 W/m² | - |
| 1777510806 | 23.33° C | 49% | 1021 hPa | 0 mm | - | 350 W/m² | - |
| 1777510505 | 23.33° C | 48% | 1021 hPa | 0 mm | - | 366 W/m² | - |
| 1777510206 | 23.33° C | 46% | 1021 hPa | 0 mm | - | 380 W/m² | - |
| 1777509905 | 23.33° C | 48% | 1021 hPa | 0 mm | - | 396 W/m² | - |
| 1777486805 | 15.56° C | 68% | 1024.6 hPa | 0 mm | - | 766 W/m² | - |
| 1777486505 | 15.56° C | 66% | 1024.6 hPa | 0 mm | - | 759 W/m² | - |
| 1777486205 | 15.56° C | 68% | 1024.7 hPa | 0 mm | - | 747 W/m² | - |
| 1777485905 | 15.56° C | 67% | 1024.7 hPa | 0 mm | - | 742 W/m² | - |
| 1777485605 | 15.56° C | 69% | 1024.7 hPa | 0 mm | - | 731 W/m² | - |
| 1777485305 | 15° C | 68% | 1024.7 hPa | 0 mm | - | 721 W/m² | - |
| 1777485005 | 14.44° C | 69% | 1024.8 hPa | 0 mm | - | 707 W/m² | - |
| 1777484705 | 14.44° C | 69% | 1024.8 hPa | 0 mm | - | 700 W/m² | - |
| 1777484405 | 14.44° C | 68% | 1024.9 hPa | 0 mm | - | 689 W/m² | - |
| 1777484105 | 14.44° C | 68% | 1024.9 hPa | 0 mm | - | 682 W/m² | - |
| 1777483805 | 14.44° C | 68% | 1024.9 hPa | 0 mm | - | 680 W/m² | - |
| 1777483505 | 13.89° C | 68% | 1025 hPa | 0 mm | - | 663 W/m² | - |
| 1777483206 | 13.89° C | 68% | 1025 hPa | 0 mm | - | 652 W/m² | - |
| 1777441806 | 10.56° C | 76% | 1025.2 hPa | 0 mm | - | 0 W/m² | - |
| 1777441506 | 10.56° C | 76% | 1025.2 hPa | 0 mm | - | 0 W/m² | - |
| 1777441206 | 10.56° C | 76% | 1025.2 hPa | 0 mm | - | 0 W/m² | - |
| 1777440906 | 10.56° C | 76% | 1025.1 hPa | 0 mm | - | 0 W/m² | - |
| 1777440606 | 10.56° C | 76% | 1025.1 hPa | 0 mm | - | 0 W/m² | - |
| 1777440306 | 10.56° C | 76% | 1025.1 hPa | 0 mm | - | 0 W/m² | - |
* Rain latest hour (hover to see other rain measurements)
** Current wind speed in m/s (hover to see current wind gust speed)